Tambon Pang Mu, Thailand

2:30 PM ICT on August 30, 2015 (GMT +0700)
Mae Hong Son | | Change Station
CLOSE
Current Station
Airport
Location: Mae Hong Son,
Elevation: 928 ft
Nearby Weather Stations

Elev 928 ft 19.30 °N, 97.97 °E | Updated 30 minutes ago

Scattered Clouds
Scattered Clouds
91 °F
Feels Like 97 °F
N
4
Wind Variable Wind from Variable

Today
High -- | Low -- °F
--% Chance of Precip.
Yesterday
High -- | Low -- °F
Precip. -- in
6:12 AM 6:45 PM
Full, 100% visible
Pressure 29.74 in
Visibility 6.2 miles
Clouds Scattered Clouds 2500 ft
Heat Index 97 °F
Dew Point 70 °F
Humidity 49%
Rainfall 0.00 in
Snow Depth Not available.
UV 12 out of 12
Pollen Not available.
Air Quality Not available.
Flu Activity Not available.
METAR VTCH 300700Z VRB03KT 9999 SCT025 33/21 Q1007 A2975 INFO: F
Pressure 29.74 in
Visibility 6.2 miles
Clouds Scattered Clouds 2500 ft
Heat Index 97 °F
Dew Point 70 °F
Humidity 49%
Rainfall 0.00 in
Snow Depth Not available.
UV 12 out of 12
Pollen Not available.
Air Quality Not available.
Flu Activity Not available.
METAR VTCH 300700Z VRB03KT 9999 SCT025 33/21 Q1007 A2975 INFO: F

10-Day Weather Forecast

×

Almanac

Astronomy

Aug. 30, 2015 Rise Set
Actual Time
Civil Twilight
Nautical Twilight
Astronomical Twilight
Moon
Length of Visible Light
Length of Day
Tomorrow will be .
, % of the Moon is Illuminated

Today's Extremes

Country Highs Country Lows

Community

WunderPhotos

Upload Photos

1,850,904 photos uploaded!

WunderBlogs® & News

Nearby

Air Quality

  Air Quality AQ Index Pollutant
Not available.

Snow Depth

Station Depth Elevation

Earthquake Activity

City Distance Mag. Time & Date
Minimum magnitude displayed is 2.5.

Coastal Water Temperatures

Place Temperature

Stations

Nearby Weather Stations

Station Location Temp. Windchill Dew Point Humidity Wind Precip. Elev Updated Type